Time;durP1;ratioP1;P1;durP2;ratioP2;P2;SDS_P1;SDS_P2;PMS_P1;PMS_P2;Temp;Humidity;BMP_temperature;BMP_pressure;BME280_temperature;BME280_humidity;BME280_pressure;Samples;Min_cycle;Max_cycle;Signal;HPM_P1;HPM_P2
2022/06/01 00:00:51;;;;;;;;;;;9.80;99.90;;;;;;5078704;28;19924;-68
2022/06/01 00:03:22;;;;;;;;;;;9.80;99.90;;;;;;5081582;28;19934;-68
2022/06/01 00:05:53;;;;;;;;;;;9.80;99.90;;;;;;5084149;28;19924;-68
2022/06/01 00:08:21;;;;;;;;;;;9.80;99.90;;;;;;5084405;28;19964;-68
2022/06/01 00:10:47;;;;;;;;;;;9.70;99.90;;;;;;5081935;28;20437;-68
2022/06/01 00:13:14;;;;;;;;;;;9.70;99.90;;;;;;5088826;28;19928;-70
2022/06/01 00:15:44;;;;;;;;;;;9.70;99.90;;;;;;5085309;28;19931;-69
2022/06/01 00:18:10;;;;;;;;;;;9.60;99.90;;;;;;5079539;28;19925;-69
2022/06/01 00:20:40;;;;;;;;;;;9.50;99.90;;;;;;5085932;28;20030;-69
2022/06/01 00:23:10;;;;;;;;;;;9.40;99.90;;;;;;5081653;28;20019;-69
2022/06/01 00:25:39;;;;;;;;;;;9.30;99.90;;;;;;5081748;28;20024;-69
2022/06/01 00:28:06;;;;;;;;;;;9.20;99.90;;;;;;5082390;28;19932;-69
2022/06/01 00:30:33;;;;;;;;;;;9.00;99.90;;;;;;5087336;28;19928;-69
2022/06/01 00:32:59;;;;;;;;;;;9.00;99.90;;;;;;5084955;28;19930;-69
2022/06/01 00:35:26;;;;;;;;;;;9.00;99.90;;;;;;5073499;28;20038;-69
2022/06/01 00:37:53;;;;;;;;;;;8.90;99.90;;;;;;5078717;28;19932;-69
2022/06/01 00:40:20;;;;;;;;;;;9.00;99.90;;;;;;5078389;28;20011;-69
2022/06/01 00:42:48;;;;;;;;;;;9.00;99.90;;;;;;5086518;28;19954;-69
2022/06/01 00:45:16;;;;;;;;;;;9.00;99.90;;;;;;5082045;28;20026;-70
2022/06/01 00:47:42;;;;;;;;;;;9.00;99.90;;;;;;5089260;28;19928;-69
2022/06/01 00:50:15;;;;;;;;;;;9.00;99.90;;;;;;5084749;28;19939;-69
2022/06/01 00:52:51;;;;;;;;;;;9.00;99.90;;;;;;5086777;28;19925;-69
2022/06/01 00:55:41;;;;;;;;;;;9.20;99.90;;;;;;5070205;28;19932;-69
2022/06/01 00:58:09;;;;;;;;;;;9.20;99.90;;;;;;5081269;28;19955;-69
2022/06/01 01:00:38;;;;;;;;;;;9.20;99.90;;;;;;5086126;28;19935;-69
2022/06/01 01:03:06;;;;;;;;;;;9.30;99.90;;;;;;5081099;28;20355;-69
2022/06/01 01:05:34;;;;;;;;;;;9.40;99.90;;;;;;5085943;28;20019;-69
2022/06/01 01:08:02;;;;;;;;;;;9.50;99.90;;;;;;5083539;28;20573;-69
2022/06/01 01:10:31;;;;;;;;;;;9.60;99.90;;;;;;5081189;28;20216;-69
2022/06/01 01:12:59;;;;;;;;;;;9.70;99.90;;;;;;5083968;28;19924;-69
2022/06/01 01:15:31;;;;;;;;;;;9.70;99.90;;;;;;5084521;28;19924;-69
2022/06/01 01:17:59;;;;;;;;;;;9.70;99.90;;;;;;5077859;28;19928;-69
2022/06/01 01:20:27;;;;;;;;;;;9.70;99.90;;;;;;5086285;28;20067;-69
2022/06/01 01:23:17;;;;;;;;;;;9.60;99.90;;;;;;5099944;28;19938;-67
2022/06/01 01:25:44;;;;;;;;;;;9.60;99.90;;;;;;5077121;28;19959;-68
2022/06/01 01:28:11;;;;;;;;;;;9.60;99.90;;;;;;5078663;28;19925;-67
2022/06/01 01:30:37;;;;;;;;;;;9.60;99.90;;;;;;5086072;28;20011;-68
2022/06/01 01:33:11;;;;;;;;;;;9.60;99.90;;;;;;5084878;28;19925;-68
2022/06/01 01:35:38;;;;;;;;;;;9.60;99.90;;;;;;5078906;28;20535;-68
2022/06/01 01:38:07;;;;;;;;;;;9.70;99.90;;;;;;5079603;28;20011;-67
2022/06/01 01:40:34;;;;;;;;;;;9.70;99.90;;;;;;5077166;28;20019;-67
2022/06/01 01:43:01;;;;;;;;;;;9.70;99.90;;;;;;5080985;28;20024;-67
2022/06/01 01:45:32;;;;;;;;;;;9.70;99.90;;;;;;5080897;28;20378;-68
2022/06/01 01:47:59;;;;;;;;;;;9.70;99.90;;;;;;5083876;28;20307;-68
2022/06/01 01:50:27;;;;;;;;;;;9.70;99.90;;;;;;5076572;28;19924;-67
2022/06/01 01:52:54;;;;;;;;;;;9.80;99.90;;;;;;5084596;28;20338;-68
2022/06/01 01:55:21;;;;;;;;;;;9.70;99.90;;;;;;5080698;28;19931;-68
2022/06/01 01:57:57;;;;;;;;;;;9.80;99.90;;;;;;5082983;28;19924;-68
2022/06/01 02:00:27;;;;;;;;;;;9.80;99.90;;;;;;5098860;28;19935;-68
2022/06/01 02:03:12;;;;;;;;;;;9.70;99.90;;;;;;5077672;28;20026;-68
2022/06/01 02:06:07;;;;;;;;;;;9.80;99.90;;;;;;5085509;28;19932;-68
2022/06/01 02:08:41;;;;;;;;;;;9.70;99.90;;;;;;5085484;28;19924;-68
2022/06/01 02:14:07;;;;;;;;;;;9.70;99.90;;;;;;5088112;28;19943;-68
2022/06/01 02:16:39;;;;;;;;;;;9.60;99.90;;;;;;5086591;28;19924;-69
2022/06/01 02:19:08;;;;;;;;;;;9.50;99.90;;;;;;5090200;28;19977;-69
2022/06/01 02:21:36;;;;;;;;;;;9.40;99.90;;;;;;5087394;28;19931;-69
2022/06/01 02:24:03;;;;;;;;;;;9.40;99.90;;;;;;5085606;28;19928;-69
2022/06/01 02:26:29;;;;;;;;;;;9.30;99.90;;;;;;5086344;28;19924;-69
2022/06/01 02:29:00;;;;;;;;;;;9.10;99.90;;;;;;5088584;28;20446;-69
2022/06/01 02:31:28;;;;;;;;;;;9.10;99.90;;;;;;5086416;28;19928;-70
2022/06/01 02:33:55;;;;;;;;;;;9.00;99.90;;;;;;5087383;28;19924;-69
2022/06/01 02:36:23;;;;;;;;;;;9.10;99.90;;;;;;5086178;28;19931;-69
2022/06/01 02:38:52;;;;;;;;;;;9.10;99.90;;;;;;5089056;28;19974;-69
2022/06/01 02:44:04;;;;;;;;;;;9.10;99.90;;;;;;5086342;28;19934;-69
2022/06/01 02:46:31;;;;;;;;;;;9.20;99.90;;;;;;5085093;28;19924;-69
2022/06/01 02:49:01;;;;;;;;;;;9.10;99.90;;;;;;5089577;28;20003;-69
2022/06/01 02:51:28;;;;;;;;;;;9.10;99.90;;;;;;5088575;28;19963;-69
2022/06/01 02:53:55;;;;;;;;;;;9.00;99.90;;;;;;5081244;28;19925;-69
2022/06/01 02:56:21;;;;;;;;;;;9.00;99.90;;;;;;5086335;28;19924;-69
2022/06/01 02:58:49;;;;;;;;;;;8.90;99.90;;;;;;5081609;28;20363;-69
2022/06/01 03:01:15;;;;;;;;;;;8.80;99.90;;;;;;5089371;28;19924;-69
2022/06/01 03:03:42;;;;;;;;;;;8.80;99.90;;;;;;5097125;28;19924;-69
2022/06/01 03:06:09;;;;;;;;;;;8.70;99.90;;;;;;5084647;28;19928;-69
2022/06/01 03:08:35;;;;;;;;;;;8.70;99.90;;;;;;5087514;28;19938;-69
2022/06/01 03:11:02;;;;;;;;;;;8.70;99.90;;;;;;5084753;28;19924;-69
2022/06/01 03:13:30;;;;;;;;;;;8.60;99.90;;;;;;5088393;28;20486;-69
2022/06/01 03:15:56;;;;;;;;;;;8.60;99.90;;;;;;5083894;28;20045;-69
2022/06/01 03:18:23;;;;;;;;;;;8.60;99.90;;;;;;5078800;28;19925;-69
2022/06/01 03:20:52;;;;;;;;;;;8.50;99.90;;;;;;5082930;28;19924;-69
2022/06/01 03:23:19;;;;;;;;;;;8.50;99.90;;;;;;5083158;28;19928;-69
2022/06/01 03:25:47;;;;;;;;;;;8.50;99.90;;;;;;5083068;28;19977;-69
2022/06/01 03:28:16;;;;;;;;;;;8.40;99.90;;;;;;5078790;28;19925;-68
2022/06/01 03:30:43;;;;;;;;;;;8.50;99.90;;;;;;5086630;28;19928;-68
2022/06/01 03:33:13;;;;;;;;;;;8.60;99.90;;;;;;5087243;28;19934;-69
2022/06/01 03:35:40;;;;;;;;;;;8.60;99.90;;;;;;5087233;28;19931;-69
2022/06/01 03:38:07;;;;;;;;;;;8.60;99.90;;;;;;5083343;28;19924;-69
2022/06/01 03:40:34;;;;;;;;;;;8.60;99.90;;;;;;5084580;28;20439;-69
2022/06/01 03:43:01;;;;;;;;;;;8.60;99.90;;;;;;5083944;28;20007;-69
2022/06/01 03:48:16;;;;;;;;;;;8.70;99.90;;;;;;5085185;28;19924;-69
2022/06/01 03:50:44;;;;;;;;;;;8.70;99.90;;;;;;5085353;28;20538;-69
2022/06/01 03:53:11;;;;;;;;;;;8.70;99.90;;;;;;5080607;28;20012;-69
2022/06/01 03:55:37;;;;;;;;;;;8.70;99.90;;;;;;5083422;28;19928;-69
2022/06/01 03:58:04;;;;;;;;;;;8.70;99.90;;;;;;5082337;28;20406;-69
2022/06/01 04:00:31;;;;;;;;;;;8.70;99.90;;;;;;5101646;28;19978;-69
2022/06/01 04:02:58;;;;;;;;;;;8.80;99.90;;;;;;5080994;28;19963;-69
2022/06/01 04:05:25;;;;;;;;;;;8.80;99.90;;;;;;5084219;28;19931;-68
2022/06/01 04:07:51;;;;;;;;;;;8.90;99.90;;;;;;5084475;28;19931;-69
2022/06/01 04:10:20;;;;;;;;;;;9.00;99.90;;;;;;5084178;28;19928;-69
2022/06/01 04:12:47;;;;;;;;;;;9.00;99.90;;;;;;5082627;28;19979;-69
2022/06/01 04:15:14;;;;;;;;;;;9.10;99.90;;;;;;5088158;28;20391;-69
2022/06/01 04:17:41;;;;;;;;;;;9.10;99.90;;;;;;5084047;28;19924;-70
2022/06/01 04:20:10;;;;;;;;;;;9.00;99.90;;;;;;5076307;28;19932;-69
2022/06/01 04:22:41;;;;;;;;;;;8.90;99.90;;;;;;5083642;28;20064;-69
2022/06/01 04:25:09;;;;;;;;;;;8.90;99.90;;;;;;5083088;28;19963;-70
2022/06/01 04:27:35;;;;;;;;;;;9.00;99.90;;;;;;5083020;28;20011;-69
2022/06/01 04:30:02;;;;;;;;;;;9.00;99.90;;;;;;5080631;28;20362;-69
2022/06/01 04:32:32;;;;;;;;;;;9.10;99.90;;;;;;5081374;28;19935;-70
2022/06/01 04:34:59;;;;;;;;;;;9.20;99.90;;;;;;5076796;28;20502;-70
2022/06/01 04:37:26;;;;;;;;;;;9.40;99.90;;;;;;5081190;28;19924;-69
2022/06/01 04:39:53;;;;;;;;;;;10.00;99.90;;;;;;5072116;28;19928;-69
2022/06/01 04:42:19;;;;;;;;;;;11.40;99.90;;;;;;5083997;28;20011;-69
2022/06/01 04:44:46;;;;;;;;;;;13.30;99.90;;;;;;5078210;28;19931;-69
2022/06/01 04:47:13;;;;;;;;;;;14.90;99.90;;;;;;5078702;28;19990;-69
2022/06/01 04:49:39;;;;;;;;;;;16.30;99.90;;;;;;5089757;28;19924;-67
2022/06/01 04:52:06;;;;;;;;;;;17.50;99.90;;;;;;5085284;28;20381;-66
2022/06/01 04:54:33;;;;;;;;;;;18.70;99.90;;;;;;5086575;28;19932;-66
2022/06/01 04:57:00;;;;;;;;;;;19.70;99.90;;;;;;5087258;28;19930;-67
2022/06/01 04:59:27;;;;;;;;;;;20.60;99.90;;;;;;5085858;28;19928;-67
2022/06/01 05:01:54;;;;;;;;;;;21.30;99.90;;;;;;5083501;28;19932;-67
2022/06/01 05:04:25;;;;;;;;;;;22.10;99.90;;;;;;5086050;28;19928;-67
2022/06/01 05:06:52;;;;;;;;;;;22.70;99.90;;;;;;5086155;28;19959;-67
2022/06/01 05:09:19;;;;;;;;;;;23.00;99.90;;;;;;5079288;28;19995;-67
2022/06/01 05:11:46;;;;;;;;;;;23.70;99.90;;;;;;5081812;28;19931;-65
2022/06/01 05:14:13;;;;;;;;;;;23.60;99.90;;;;;;5079460;28;19932;-66
2022/06/01 05:16:40;;;;;;;;;;;22.50;99.90;;;;;;5086484;28;20404;-65
2022/06/01 05:19:06;;;;;;;;;;;21.80;99.90;;;;;;5087325;28;19971;-66
2022/06/01 05:21:35;;;;;;;;;;;21.40;99.90;;;;;;5087232;28;19963;-66
2022/06/01 05:24:02;;;;;;;;;;;21.50;99.90;;;;;;5080361;28;19927;-67
2022/06/01 05:26:29;;;;;;;;;;;21.30;99.90;;;;;;5079265;28;20438;-67
2022/06/01 05:28:56;;;;;;;;;;;21.40;99.90;;;;;;5087873;28;19924;-67
2022/06/01 05:31:23;;;;;;;;;;;21.80;99.90;;;;;;5086725;28;19924;-68
2022/06/01 05:33:51;;;;;;;;;;;22.50;99.90;;;;;;5088957;28;19924;-67
2022/06/01 05:36:18;;;;;;;;;;;23.10;99.90;;;;;;5088222;28;19928;-67
2022/06/01 05:38:48;;;;;;;;;;;23.60;99.90;;;;;;5088104;28;20027;-68
2022/06/01 05:41:15;;;;;;;;;;;24.10;99.90;;;;;;5085331;28;19950;-68
2022/06/01 05:43:45;;;;;;;;;;;24.80;99.90;;;;;;5084510;28;19930;-67
2022/06/01 05:46:13;;;;;;;;;;;25.40;99.30;;;;;;5087238;28;19969;-66
2022/06/01 05:48:39;;;;;;;;;;;25.80;98.40;;;;;;5090734;28;20039;-67
2022/06/01 05:51:06;;;;;;;;;;;25.80;98.20;;;;;;5087232;28;19924;-66
2022/06/01 05:53:32;;;;;;;;;;;25.40;97.60;;;;;;5091108;28;19924;-67
2022/06/01 05:55:59;;;;;;;;;;;24.90;97.90;;;;;;5088108;28;19924;-67
2022/06/01 05:58:27;;;;;;;;;;;25.20;97.90;;;;;;5087235;28;20478;-67
2022/06/01 06:00:54;;;;;;;;;;;25.70;97.60;;;;;;5085839;28;19924;-67
2022/06/01 06:03:24;;;;;;;;;;;26.30;97.10;;;;;;5086006;28;19998;-68
2022/06/01 06:08:42;;;;;;;;;;;26.80;95.50;;;;;;5097977;28;19924;-68
2022/06/01 06:11:15;;;;;;;;;;;27.10;95.50;;;;;;5086963;28;19924;-67
2022/06/01 06:13:43;;;;;;;;;;;27.20;95.50;;;;;;5089055;28;19931;-68
2022/06/01 06:16:10;;;;;;;;;;;27.40;95.80;;;;;;5088518;28;19931;-68
2022/06/01 06:18:37;;;;;;;;;;;27.50;94.60;;;;;;5088545;28;19928;-68
2022/06/01 06:21:04;;;;;;;;;;;27.20;94.10;;;;;;5076748;28;19938;-67
2022/06/01 06:23:31;;;;;;;;;;;27.00;94.10;;;;;;5091416;28;20018;-68
2022/06/01 06:25:57;;;;;;;;;;;27.50;93.90;;;;;;5083962;28;20398;-69
2022/06/01 06:28:25;;;;;;;;;;;27.30;93.70;;;;;;5084008;28;19947;-68
2022/06/01 06:30:51;;;;;;;;;;;26.80;94.30;;;;;;5082633;28;19928;-69
2022/06/01 06:33:18;;;;;;;;;;;27.20;94.70;;;;;;5090316;28;19932;-68
2022/06/01 06:35:45;;;;;;;;;;;27.80;93.90;;;;;;5091786;28;20401;-66
2022/06/01 06:38:11;;;;;;;;;;;28.00;93.30;;;;;;5090833;28;19939;-68
2022/06/01 06:40:38;;;;;;;;;;;28.00;93.40;;;;;;5089791;28;20015;-68
2022/06/01 06:43:05;;;;;;;;;;;27.50;93.00;;;;;;5088730;28;20319;-68
2022/06/01 06:45:31;;;;;;;;;;;27.20;93.30;;;;;;5087646;28;20601;-66
2022/06/01 06:47:58;;;;;;;;;;;27.00;92.90;;;;;;5088102;28;19924;-67
2022/06/01 06:50:28;;;;;;;;;;;27.30;92.90;;;;;;5087979;28;19928;-68
2022/06/01 06:53:16;;;;;;;;;;;27.90;93.00;;;;;;5085546;28;19928;-68
2022/06/01 06:55:42;;;;;;;;;;;27.80;92.60;;;;;;5087009;28;19938;-68
2022/06/01 06:58:09;;;;;;;;;;;26.60;92.60;;;;;;5086944;28;19924;-68
2022/06/01 07:00:37;;;;;;;;;;;26.30;93.80;;;;;;5087133;28;20033;-68
2022/06/01 07:03:04;;;;;;;;;;;26.70;93.70;;;;;;5087160;28;19968;-66
2022/06/01 07:08:19;;;;;;;;;;;27.20;92.90;;;;;;5089276;28;20442;-68
2022/06/01 07:10:46;;;;;;;;;;;27.40;92.40;;;;;;5086509;28;19934;-69
2022/06/01 07:13:13;;;;;;;;;;;27.70;92.40;;;;;;5098086;28;19934;-68
2022/06/01 07:15:39;;;;;;;;;;;27.20;91.50;;;;;;5085549;28;19935;-67
2022/06/01 07:18:16;;;;;;;;;;;27.20;92.00;;;;;;5086608;28;20390;-67
2022/06/01 07:20:42;;;;;;;;;;;27.10;92.20;;;;;;5082041;28;19931;-68
2022/06/01 07:23:09;;;;;;;;;;;27.40;92.30;;;;;;5084130;28;19938;-68
2022/06/01 07:25:36;;;;;;;;;;;27.80;91.30;;;;;;5085254;28;19924;-68
2022/06/01 07:28:06;;;;;;;;;;;28.30;91.00;;;;;;5079591;28;20308;-68
2022/06/01 07:30:34;;;;;;;;;;;28.90;90.80;;;;;;5088461;28;20409;-67
2022/06/01 07:33:00;;;;;;;;;;;29.20;90.60;;;;;;5084358;28;19963;-68
2022/06/01 07:35:27;;;;;;;;;;;29.20;90.80;;;;;;5087406;28;19931;-66
2022/06/01 07:43:26;;;;;;;;;;;28.00;89.20;;;;;;5084175;28;19928;-68
2022/06/01 07:45:52;;;;;;;;;;;27.40;90.50;;;;;;5089103;28;19955;-68
2022/06/01 07:48:19;;;;;;;;;;;28.20;90.10;;;;;;5087881;28;20291;-67
2022/06/01 07:51:06;;;;;;;;;;;28.50;88.90;;;;;;5086632;28;20385;-68
2022/06/01 07:53:33;;;;;;;;;;;28.80;89.10;;;;;;5087003;28;20018;-68
2022/06/01 07:55:59;;;;;;;;;;;28.70;88.40;;;;;;5084989;28;19924;-66
2022/06/01 07:58:26;;;;;;;;;;;28.80;87.10;;;;;;5082364;28;19938;-67
2022/06/01 08:00:53;;;;;;;;;;;27.90;89.00;;;;;;5085531;28;20469;-68
2022/06/01 08:03:20;;;;;;;;;;;27.40;89.50;;;;;;5089519;28;20429;-67
2022/06/01 08:05:47;;;;;;;;;;;27.70;90.20;;;;;;5085792;28;19931;-68
2022/06/01 08:08:14;;;;;;;;;;;27.80;90.50;;;;;;5090346;28;20504;-68
2022/06/01 08:10:40;;;;;;;;;;;28.30;87.90;;;;;;5089568;28;19963;-67
2022/06/01 08:13:12;;;;;;;;;;;27.70;86.70;;;;;;5086729;28;20007;-67
2022/06/01 08:15:42;;;;;;;;;;;27.60;87.90;;;;;;5086106;28;19932;-68
2022/06/01 08:18:09;;;;;;;;;;;27.70;86.20;;;;;;5082102;28;20026;-68
2022/06/01 08:20:36;;;;;;;;;;;26.90;87.60;;;;;;5083815;28;19954;-68
2022/06/01 08:23:04;;;;;;;;;;;26.90;86.70;;;;;;5082783;28;19966;-66
2022/06/01 08:25:31;;;;;;;;;;;26.90;86.40;;;;;;5086635;28;20320;-67
2022/06/01 08:27:58;;;;;;;;;;;27.00;89.10;;;;;;5084619;28;19924;-68
2022/06/01 08:30:26;;;;;;;;;;;27.50;88.50;;;;;;5089203;28;19924;-67
2022/06/01 08:32:54;;;;;;;;;;;27.90;87.30;;;;;;5086957;28;19938;-67
2022/06/01 08:35:23;;;;;;;;;;;27.60;86.50;;;;;;5088890;28;19938;-68
2022/06/01 08:37:50;;;;;;;;;;;26.40;86.70;;;;;;5087341;28;19924;-66
2022/06/01 08:40:21;;;;;;;;;;;26.10;89.00;;;;;;5089107;28;20278;-68
2022/06/01 08:42:50;;;;;;;;;;;25.80;89.70;;;;;;5085141;28;19931;-66
2022/06/01 08:45:18;;;;;;;;;;;26.30;88.30;;;;;;5087345;28;20401;-68
2022/06/01 08:47:45;;;;;;;;;;;26.80;89.60;;;;;;5087444;28;20010;-68
2022/06/01 08:50:18;;;;;;;;;;;27.10;89.70;;;;;;5075733;28;19924;-65
2022/06/01 08:52:45;;;;;;;;;;;27.50;86.30;;;;;;5084721;28;19932;-67
2022/06/01 08:55:12;;;;;;;;;;;27.00;85.00;;;;;;5085182;28;19938;-68
2022/06/01 08:57:54;;;;;;;;;;;25.80;86.00;;;;;;5085671;28;19930;-65
2022/06/01 09:00:21;;;;;;;;;;;26.00;87.90;;;;;;5102819;28;20290;-67
2022/06/01 09:03:08;;;;;;;;;;;26.90;85.20;;;;;;5090359;28;19931;-67
2022/06/01 09:05:40;;;;;;;;;;;27.30;85.80;;;;;;5093142;28;19924;-66
2022/06/01 09:08:13;;;;;;;;;;;28.00;83.90;;;;;;5088423;28;19936;-68
2022/06/01 09:10:40;;;;;;;;;;;28.50;84.30;;;;;;5087148;28;19931;-67
2022/06/01 09:13:23;;;;;;;;;;;28.90;82.80;;;;;;5090567;28;19981;-64
2022/06/01 09:15:50;;;;;;;;;;;29.00;80.80;;;;;;5090081;28;19924;-69
2022/06/01 09:18:20;;;;;;;;;;;28.50;80.70;;;;;;5103578;28;19947;-68
2022/06/01 09:23:32;;;;;;;;;;;26.90;82.60;;;;;;5090631;28;19930;-65
2022/06/01 09:25:59;;;;;;;;;;;26.90;84.50;;;;;;5092975;28;19931;-66
2022/06/01 09:28:27;;;;;;;;;;;27.20;83.50;;;;;;5088852;28;19924;-67
2022/06/01 09:31:08;;;;;;;;;;;27.70;83.90;;;;;;5090693;28;20007;-66
2022/06/01 09:33:37;;;;;;;;;;;27.80;82.80;;;;;;5091280;28;19974;-67
2022/06/01 09:36:08;;;;;;;;;;;28.20;82.40;;;;;;5087212;28;20409;-66
2022/06/01 09:38:41;;;;;;;;;;;28.20;83.30;;;;;;5085242;28;19924;-67
2022/06/01 09:41:12;;;;;;;;;;;28.40;82.40;;;;;;5082020;28;19967;-67
2022/06/01 09:43:40;;;;;;;;;;;28.90;84.00;;;;;;5089538;28;19956;-67
2022/06/01 09:46:07;;;;;;;;;;;29.10;83.20;;;;;;5095894;28;19930;-65
2022/06/01 09:48:35;;;;;;;;;;;30.00;81.30;;;;;;5097597;28;19924;-65
2022/06/01 09:51:08;;;;;;;;;;;30.30;82.20;;;;;;5085748;28;20027;-66
2022/06/01 09:53:48;;;;;;;;;;;30.20;81.50;;;;;;5079750;28;19929;-64
2022/06/01 09:56:28;;;;;;;;;;;30.20;80.70;;;;;;5081628;28;20026;-65
2022/06/01 10:07:28;;;;;;;;;;;28.10;83.20;;;;;;5086348;28;20015;-65
2022/06/01 10:09:57;;;;;;;;;;;28.20;81.30;;;;;;5079740;28;19928;-65
2022/06/01 10:12:24;;;;;;;;;;;28.90;80.90;;;;;;5086638;28;19956;-65
2022/06/01 10:14:52;;;;;;;;;;;28.40;81.80;;;;;;5088169;28;19924;-66
2022/06/01 10:17:26;;;;;;;;;;;27.50;81.50;;;;;;5089153;28;19924;-65
2022/06/01 10:19:53;;;;;;;;;;;27.10;82.20;;;;;;5091403;28;19969;-66
2022/06/01 10:22:30;;;;;;;;;;;27.50;82.10;;;;;;5082512;28;19962;-66
2022/06/01 10:25:11;;;;;;;;;;;28.30;82.10;;;;;;5082734;28;20378;-66
2022/06/01 10:27:40;;;;;;;;;;;28.20;80.90;;;;;;5082733;28;19973;-65
2022/06/01 10:30:18;;;;;;;;;;;28.10;82.10;;;;;;5086498;28;19931;-63
2022/06/01 10:32:51;;;;;;;;;;;28.10;80.40;;;;;;5090625;28;20519;-65
2022/06/01 10:35:36;;;;;;;;;;;28.00;82.50;;;;;;5089190;28;19928;-65
2022/06/01 10:38:07;;;;;;;;;;;27.60;81.40;;;;;;5094270;28;19924;-65
2022/06/01 10:40:40;;;;;;;;;;;26.60;83.00;;;;;;5088614;28;20337;-63
2022/06/01 10:43:18;;;;;;;;;;;25.80;83.40;;;;;;5088872;28;19924;-65
2022/06/01 10:45:49;;;;;;;;;;;25.50;83.40;;;;;;5087904;28;19924;-65
2022/06/01 10:48:27;;;;;;;;;;;26.00;86.20;;;;;;5089994;28;19995;-66
2022/06/01 10:50:54;;;;;;;;;;;26.60;83.40;;;;;;5091888;28;20011;-64
2022/06/01 10:53:27;;;;;;;;;;;27.70;81.90;;;;;;5087750;28;19931;-64
2022/06/01 10:55:54;;;;;;;;;;;28.30;82.10;;;;;;5087836;28;19925;-64
2022/06/01 10:58:22;;;;;;;;;;;28.50;81.10;;;;;;5090575;28;19935;-64
2022/06/01 11:00:49;;;;;;;;;;;28.60;81.60;;;;;;5090570;28;19938;-64
2022/06/01 11:03:25;;;;;;;;;;;28.70;79.40;;;;;;5082474;28;20547;-66
2022/06/01 11:05:55;;;;;;;;;;;28.80;81.30;;;;;;5084627;28;19947;-64
2022/06/01 11:08:42;;;;;;;;;;;28.90;79.70;;;;;;5091371;28;19924;-65
2022/06/01 11:11:18;;;;;;;;;;;28.20;80.60;;;;;;5089138;28;19966;-66
2022/06/01 11:13:55;;;;;;;;;;;27.90;81.80;;;;;;5093401;28;19930;-62
2022/06/01 11:16:34;;;;;;;;;;;28.20;80.70;;;;;;5091363;28;19928;-64
2022/06/01 11:19:27;;;;;;;;;;;28.20;78.90;;;;;;5088258;28;19924;-65
2022/06/01 11:22:01;;;;;;;;;;;27.90;79.70;;;;;;5089852;28;19930;-66
2022/06/01 11:24:27;;;;;;;;;;;27.90;79.80;;;;;;5092176;28;19927;-64
2022/06/01 11:27:06;;;;;;;;;;;27.70;79.90;;;;;;5087053;28;20547;-64
2022/06/01 11:29:43;;;;;;;;;;;27.80;80.10;;;;;;5090522;28;20015;-64
2022/06/01 11:32:13;;;;;;;;;;;28.10;79.70;;;;;;5090353;28;19924;-65
2022/06/01 11:34:42;;;;;;;;;;;28.30;79.90;;;;;;5091105;28;19925;-64
2022/06/01 11:37:14;;;;;;;;;;;28.00;79.70;;;;;;5089305;28;20445;-64
2022/06/01 11:39:43;;;;;;;;;;;27.10;81.90;;;;;;5094961;28;19959;-67
2022/06/01 11:42:19;;;;;;;;;;;26.90;81.00;;;;;;5097474;28;19924;-67
2022/06/01 11:44:53;;;;;;;;;;;26.80;80.90;;;;;;5084182;28;19924;-64
2022/06/01 11:47:21;;;;;;;;;;;27.10;82.40;;;;;;5083277;28;20418;-68
2022/06/01 11:50:05;;;;;;;;;;;27.30;82.60;;;;;;5082936;28;20371;-65
2022/06/01 11:52:44;;;;;;;;;;;27.50;81.60;;;;;;5088228;28;19935;-65
2022/06/01 11:55:21;;;;;;;;;;;27.60;81.20;;;;;;5086740;28;20310;-64
2022/06/01 11:57:50;;;;;;;;;;;27.50;81.30;;;;;;5085633;28;19963;-65
2022/06/01 12:00:19;;;;;;;;;;;27.40;81.10;;;;;;5083414;28;19935;-67
2022/06/01 12:02:53;;;;;;;;;;;27.80;84.50;;;;;;5086694;28;19930;-65
2022/06/01 12:05:20;;;;;;;;;;;28.00;80.20;;;;;;5082485;28;19931;-63
2022/06/01 12:07:52;;;;;;;;;;;27.30;79.90;;;;;;5086200;28;19934;-65
2022/06/01 12:10:37;;;;;;;;;;;26.50;80.40;;;;;;5092123;28;19928;-64
2022/06/01 12:13:22;;;;;;;;;;;25.80;81.20;;;;;;5082352;28;19928;-64
2022/06/01 12:16:05;;;;;;;;;;;25.30;82.30;;;;;;5084225;28;19931;-64
2022/06/01 12:18:35;;;;;;;;;;;24.90;82.30;;;;;;5083994;28;19928;-69
2022/06/01 12:21:19;;;;;;;;;;;24.80;83.90;;;;;;5082850;28;19928;-65
2022/06/01 12:29:32;;;;;;;;;;;26.30;82.40;;;;;;5085603;28;20325;-65
2022/06/01 12:31:59;;;;;;;;;;;26.70;82.90;;;;;;5087507;28;19924;-66
2022/06/01 12:34:27;;;;;;;;;;;27.30;81.60;;;;;;5089626;28;19928;-66
2022/06/01 12:36:57;;;;;;;;;;;27.80;80.40;;;;;;5088694;28;20418;-66
2022/06/01 12:39:33;;;;;;;;;;;28.10;79.50;;;;;;5089464;28;19924;-65
2022/06/01 12:42:02;;;;;;;;;;;28.20;79.80;;;;;;5083581;28;20109;-66
2022/06/01 12:44:31;;;;;;;;;;;27.80;80.00;;;;;;5086677;28;19924;-67
2022/06/01 12:46:58;;;;;;;;;;;28.20;79.20;;;;;;5069121;28;19924;-67
2022/06/01 12:49:32;;;;;;;;;;;28.20;79.10;;;;;;5088424;28;20369;-68
2022/06/01 12:52:13;;;;;;;;;;;28.50;80.40;;;;;;5086914;28;19948;-66
2022/06/01 12:55:00;;;;;;;;;;;28.30;77.90;;;;;;5086399;28;20023;-65
2022/06/01 12:57:27;;;;;;;;;;;27.30;78.70;;;;;;5084914;28;20010;-67
2022/06/01 12:59:58;;;;;;;;;;;26.60;80.50;;;;;;5090064;28;19939;-65
2022/06/01 13:02:27;;;;;;;;;;;26.00;80.50;;;;;;5089464;28;19924;-66
2022/06/01 13:04:55;;;;;;;;;;;25.50;81.30;;;;;;5081756;28;19939;-66
2022/06/01 13:07:32;;;;;;;;;;;25.60;81.50;;;;;;5086767;28;19932;-64
2022/06/01 13:10:11;;;;;;;;;;;25.90;80.70;;;;;;5083931;28;20317;-64
2022/06/01 13:12:38;;;;;;;;;;;26.30;80.40;;;;;;5087571;28;19931;-63
2022/06/01 13:15:14;;;;;;;;;;;26.10;79.30;;;;;;5084169;28;20286;-66
2022/06/01 13:18:01;;;;;;;;;;;25.50;80.40;;;;;;5085956;28;20027;-65
2022/06/01 13:20:46;;;;;;;;;;;25.40;81.20;;;;;;5085054;28;20287;-68
2022/06/01 13:23:25;;;;;;;;;;;25.10;79.90;;;;;;5080788;28;20339;-65
2022/06/01 13:25:53;;;;;;;;;;;24.90;81.90;;;;;;5081911;28;20366;-64
2022/06/01 13:28:20;;;;;;;;;;;25.30;82.60;;;;;;5088647;28;19930;-65
2022/06/01 13:30:48;;;;;;;;;;;25.30;81.00;;;;;;5088190;28;19963;-64
2022/06/01 13:33:22;;;;;;;;;;;25.30;82.80;;;;;;5084887;28;19936;-65
2022/06/01 13:35:56;;;;;;;;;;;25.70;80.40;;;;;;5085114;28;19930;-65
2022/06/01 13:38:30;;;;;;;;;;;26.30;80.60;;;;;;5101676;28;19928;-64
2022/06/01 13:41:04;;;;;;;;;;;26.60;79.60;;;;;;5103540;28;20371;-67
2022/06/01 13:43:38;;;;;;;;;;;26.60;79.30;;;;;;5083112;28;19924;-65
2022/06/01 13:46:07;;;;;;;;;;;26.80;79.10;;;;;;5092519;28;19923;-67
2022/06/01 13:48:33;;;;;;;;;;;27.30;79.00;;;;;;5098439;28;20611;-68
2022/06/01 13:51:08;;;;;;;;;;;28.00;78.80;;;;;;5087428;28;19939;-65
2022/06/01 13:53:40;;;;;;;;;;;28.60;78.20;;;;;;5083473;28;19924;-68
2022/06/01 13:56:20;;;;;;;;;;;29.20;76.90;;;;;;5094383;28;20256;-67
2022/06/01 13:58:59;;;;;;;;;;;29.50;76.20;;;;;;5084086;28;19962;-63
2022/06/01 14:01:31;;;;;;;;;;;30.40;75.80;;;;;;5101032;28;20042;-66
2022/06/01 14:04:00;;;;;;;;;;;30.50;74.70;;;;;;5083512;28;19985;-66
2022/06/01 14:06:35;;;;;;;;;;;29.80;75.20;;;;;;5092956;28;20430;-65
2022/06/01 14:09:03;;;;;;;;;;;28.60;75.50;;;;;;5086793;28;20453;-68
2022/06/01 14:11:31;;;;;;;;;;;27.50;78.40;;;;;;5094628;28;20310;-68
2022/06/01 14:14:00;;;;;;;;;;;26.70;78.10;;;;;;5089073;28;19932;-65
2022/06/01 14:16:26;;;;;;;;;;;25.80;79.00;;;;;;5084472;28;19936;-64
2022/06/01 14:19:00;;;;;;;;;;;24.90;80.00;;;;;;5090858;28;19932;-67
2022/06/01 14:21:28;;;;;;;;;;;24.40;80.00;;;;;;5084849;28;20299;-65
2022/06/01 14:23:55;;;;;;;;;;;24.00;79.70;;;;;;5095103;28;19930;-68
2022/06/01 14:29:08;;;;;;;;;;;26.00;79.90;;;;;;5094460;28;19934;-65
2022/06/01 14:31:36;;;;;;;;;;;28.10;78.00;;;;;;5086983;28;19936;-67
2022/06/01 14:34:06;;;;;;;;;;;29.60;75.80;;;;;;5085202;28;19924;-66
2022/06/01 14:36:33;;;;;;;;;;;28.80;74.80;;;;;;5084311;28;20032;-65
2022/06/01 14:39:00;;;;;;;;;;;27.60;76.20;;;;;;5089227;28;19931;-67
2022/06/01 14:41:31;;;;;;;;;;;26.30;77.70;;;;;;5091253;28;20035;-67
2022/06/01 14:44:00;;;;;;;;;;;25.30;79.20;;;;;;5096442;28;19928;-64
2022/06/01 14:46:27;;;;;;;;;;;24.60;80.40;;;;;;5102513;28;19963;-67
2022/06/01 14:48:54;;;;;;;;;;;25.70;78.80;;;;;;5089248;28;20097;-66
2022/06/01 14:51:23;;;;;;;;;;;27.90;79.40;;;;;;5091222;28;20031;-67
2022/06/01 14:53:51;;;;;;;;;;;29.90;75.10;;;;;;5092387;28;19923;-66
2022/06/01 14:56:18;;;;;;;;;;;31.70;73.50;;;;;;5094562;28;19935;-64
2022/06/01 14:58:44;;;;;;;;;;;32.50;71.80;;;;;;5094457;28;19923;-65
2022/06/01 15:01:17;;;;;;;;;;;32.60;71.50;;;;;;5088163;28;20031;-67
2022/06/01 15:03:46;;;;;;;;;;;32.50;70.80;;;;;;5093244;28;19931;-65
2022/06/01 15:06:13;;;;;;;;;;;32.10;71.20;;;;;;5092728;28;19931;-66
2022/06/01 15:08:40;;;;;;;;;;;31.00;71.40;;;;;;5089704;28;19928;-66
2022/06/01 15:11:08;;;;;;;;;;;30.60;72.00;;;;;;5090383;28;19938;-67
2022/06/01 15:13:35;;;;;;;;;;;31.20;71.40;;;;;;5111512;28;19967;-65
2022/06/01 15:16:03;;;;;;;;;;;32.30;71.40;;;;;;5097409;28;19928;-65